Terminal Aerodrome Forecast
Issued by NWS

Home | Current Version | Previous Version | Graphics & Text | Print | Product List | Glossary On
Versions: 1 2 3 4 5 6 7 8 9 10 11 12 13 14 15 16 17 18 19 20 21 22 23
000
FTUS42 KMHX 191620 AAA
TAFOAJ
TAF AMD
KOAJ 191620Z 1916/2012 13005KT P6SM VCSH BKN050 OVC070
     FM192000 18008KT P6SM SCT025 BKN040
     FM200200 17005KT 2SM BR OVC008
     FM200600 VRB03KT 3/4SM BR OVC004
      AMD LTD TO CLD VIS AND WIND=

USA.gov is the U.S. government's official web portal to all federal, state and local government web resources and services.